Time;durP1;ratioP1;P1;durP2;ratioP2;P2;SDS_P1;SDS_P2;PMS_P1;PMS_P2;Temp;Humidity;BMP_temperature;BMP_pressure;BME280_temperature;BME280_humidity;BME280_pressure;Samples;Min_cycle;Max_cycle;Signal;HPM_P1;HPM_P2
2022/08/03 00:01:15;;;;;;;27.30;3.40;;;;;;;25.66;56.26;99554.44;7314317;19;129257;-32
2022/08/03 00:03:41;;;;;;;22.35;2.80;;;;;;;25.66;54.61;99552.63;7311406;19;130071;-39
2022/08/03 00:06:06;;;;;;;21.67;2.80;;;;;;;25.68;54.43;99553.25;7313026;19;129656;-37
2022/08/03 00:08:32;;;;;;;32.83;3.70;;;;;;;25.68;55.31;99552.47;7312460;19;129001;-38
2022/08/03 00:10:57;;;;;;;31.47;3.73;;;;;;;25.65;55.48;99548.34;7313123;19;130090;-38
2022/08/03 00:13:24;;;;;;;23.60;3.30;;;;;;;25.66;55.66;99550.00;7310822;19;130065;-34
2022/08/03 00:15:49;;;;;;;46.10;4.70;;;;;;;25.66;54.79;99543.91;7312386;19;129335;-44
2022/08/03 00:18:14;;;;;;;33.73;3.87;;;;;;;25.65;54.62;99545.72;7311835;19;129046;-39
2022/08/03 00:20:40;;;;;;;23.00;2.80;;;;;;;25.66;55.39;99544.72;7310711;19;128959;-35
2022/08/03 00:23:06;;;;;;;27.97;3.63;;;;;;;25.68;55.81;99541.94;7312155;19;129078;-40
2022/08/03 00:25:33;;;;;;;25.13;3.00;;;;;;;25.66;56.12;99543.91;7312260;19;131259;-37
2022/08/03 00:27:58;;;;;;;22.83;3.08;;;;;;;25.59;54.12;99521.84;7312082;19;128898;-41
2022/08/03 00:30:24;;;;;;;24.63;3.37;;;;;;;25.66;55.19;99539.47;7308041;19;129087;-36
2022/08/03 00:32:49;;;;;;;23.73;3.00;;;;;;;25.66;55.58;99533.38;7309968;19;129619;-37
2022/08/03 00:35:15;;;;;;;36.53;4.13;;;;;;;25.65;55.41;99534.38;7311466;19;129218;-37
2022/08/03 00:37:40;;;;;;;24.17;3.20;;;;;;;25.65;55.49;99535.16;7311467;19;129171;-40
2022/08/03 00:40:06;;;;;;;32.30;3.27;;;;;;;25.67;55.26;99535.00;7308599;19;129101;-37
2022/08/03 00:42:31;;;;;;;21.67;2.70;;;;;;;25.67;54.80;99535.00;7311625;19;130131;-34
2022/08/03 00:44:57;;;;;;;25.87;2.93;;;;;;;25.66;55.20;99533.38;7312513;19;129782;-37
2022/08/03 00:47:22;;;;;;;36.27;4.03;;;;;;;25.56;54.82;99516.94;7311812;19;130122;-39
2022/08/03 00:49:47;;;;;;;28.00;3.57;;;;;;;25.64;54.62;99533.53;7314762;19;129214;-32
2022/08/03 00:52:15;;;;;;;45.77;4.70;;;;;;;25.64;55.45;99538.81;7317227;19;129382;-39
2022/08/03 00:54:40;;;;;;;29.15;3.30;;;;;;;25.65;55.49;99539.63;7318203;19;129516;-40
2022/08/03 00:57:06;;;;;;;10.97;1.97;;;;;;;25.58;55.30;99517.59;7318532;19;128755;-34
2022/08/03 00:59:32;;;;;;;23.37;2.97;;;;;;;25.66;54.94;99530.75;7316865;19;129116;-36
2022/08/03 01:01:58;;;;;;;25.37;3.30;;;;;;;25.65;55.01;99532.53;7318224;19;129587;-40
2022/08/03 01:04:23;;;;;;;33.42;3.63;;;;;;;25.66;55.01;99538.63;7317800;19;130131;-35
2022/08/03 01:06:55;;;;;;;21.93;2.53;;;;;;;25.58;55.34;99520.22;7316495;19;129702;-39
2022/08/03 01:09:56;;;;;;;11.40;2.33;;;;;;;25.65;56.28;99537.00;7317057;19;128831;-37
2022/08/03 01:13:03;;;;;;;25.73;3.17;;;;;;;25.65;56.69;99532.53;7314625;19;129220;-42
2022/08/03 01:15:48;;;;;;;14.18;2.70;;;;;;;25.67;56.76;99537.63;7313128;19;131166;-36
2022/08/03 01:18:19;;;;;;;48.63;5.03;;;;;;;25.57;56.08;99524.66;7317100;19;128967;-34
2022/08/03 01:20:48;;;;;;;19.95;2.90;;;;;;;25.64;55.96;99528.28;7316520;19;129360;-37
2022/08/03 01:23:51;;;;;;;30.33;3.47;;;;;;;25.66;56.76;99533.38;7316790;19;129096;-41
2022/08/03 01:26:52;;;;;;;23.10;2.88;;;;;;;25.59;57.03;99527.13;7318490;19;130727;-34
2022/08/03 01:29:39;;;;;;;27.83;3.45;;;;;;;25.66;57.37;99533.38;7316039;19;129314;-37
2022/08/03 01:32:11;;;;;;;26.98;3.13;;;;;;;25.65;56.76;99537.00;7318171;19;129016;-34
2022/08/03 01:34:42;;;;;;;16.83;2.80;;;;;;;25.63;56.55;99531.88;7318297;19;130167;-38
2022/08/03 01:37:11;;;;;;;21.40;2.85;;;;;;;25.62;56.32;99532.88;7316973;19;129780;-38
2022/08/03 01:39:39;;;;;;;35.88;3.80;;;;;;;25.62;55.39;99526.78;7314561;19;129550;-35
2022/08/03 01:42:07;;;;;;;47.03;4.72;;;;;;;25.61;55.19;99525.16;7317886;19;130578;-37
2022/08/03 01:44:39;;;;;;;23.27;2.97;;;;;;;25.61;56.75;99519.88;7318340;19;129728;-36
2022/08/03 01:47:06;;;;;;;34.20;3.95;;;;;;;25.61;55.32;99533.88;7316702;19;129635;-36
2022/08/03 01:49:38;;;;;;;19.65;2.60;;;;;;;25.60;56.76;99523.50;7314896;19;129161;-34
2022/08/03 01:52:05;;;;;;;45.17;4.75;;;;;;;25.62;55.40;99532.03;7316439;19;129242;-36
2022/08/03 01:54:35;;;;;;;21.70;2.80;;;;;;;25.62;56.27;99537.31;7318227;19;129797;-34
2022/08/03 01:57:01;;;;;;;22.70;3.20;;;;;;;25.61;56.10;99530.41;7315668;19;129728;-38
2022/08/03 01:59:28;;;;;;;;;;;;;;;25.71;57.33;99531.06;7314780;19;128984;-37
2022/08/03 02:01:55;;;;;;;30.80;3.60;;;;;;;25.63;54.63;99528.44;7315267;19;129783;-37
2022/08/03 02:04:22;;;;;;;16.55;2.85;;;;;;;25.56;55.40;99532.72;7316017;19;129747;-36
2022/08/03 02:06:48;;;;;;;29.75;3.92;;;;;;;25.55;55.37;99531.09;7315313;19;129216;-39
2022/08/03 02:09:16;;;;;;;25.53;3.57;;;;;;;25.52;55.44;99526.97;7314248;19;129214;-38
2022/08/03 02:11:43;;;;;;;24.27;3.08;;;;;;;25.56;55.06;99522.19;7315170;19;131716;-35
2022/08/03 02:14:10;;;;;;;21.17;2.92;;;;;;;25.57;55.60;99524.66;7316441;19;129176;-36
2022/08/03 02:16:37;;;;;;;21.55;3.00;;;;;;;25.55;55.74;99518.72;7316805;19;129572;-38
2022/08/03 02:19:05;;;;;;;32.60;3.70;;;;;;;25.56;55.73;99523.03;7314774;19;131146;-38
2022/08/03 02:21:34;;;;;;;25.38;3.22;;;;;;;25.56;55.58;99522.19;7317379;19;129455;-32
2022/08/03 02:24:00;;;;;;;29.23;3.72;;;;;;;25.57;55.22;99515.94;7316268;19;129269;-38
2022/08/03 02:26:28;;;;;;;22.80;3.23;;;;;;;25.57;56.46;99513.28;7315951;19;129411;-30
2022/08/03 02:28:56;;;;;;;27.08;3.65;;;;;;;25.54;55.83;99509.19;7315149;19;129091;-38
2022/08/03 02:31:27;;;;;;;21.02;3.08;;;;;;;25.55;55.90;99510.84;7315659;19;129668;-42
2022/08/03 02:33:56;;;;;;;34.85;4.25;;;;;;;25.54;56.01;99500.47;7313496;19;129711;-34
2022/08/03 02:36:27;;;;;;;28.30;3.72;;;;;;;25.49;56.48;99494.88;7316690;19;129342;-37
2022/08/03 02:38:55;;;;;;;25.58;3.58;;;;;;;25.55;56.20;99504.75;7314580;19;130252;-38
2022/08/03 02:41:29;;;;;;;26.77;3.63;;;;;;;25.56;56.99;99507.22;7315019;19;130087;-36
2022/08/03 02:43:58;;;;;;;20.40;3.38;;;;;;;25.56;55.40;99511.66;7315651;19;129141;-37
2022/08/03 02:46:29;;;;;;;25.85;3.58;;;;;;;25.56;56.66;99516.94;7315208;19;131204;-33
2022/08/03 02:48:56;;;;;;;21.17;3.30;;;;;;;25.56;56.08;99516.94;7313902;19;128976;-38
2022/08/03 02:51:23;;;;;;;31.20;4.28;;;;;;;25.56;55.64;99514.28;7315154;19;129345;-36
2022/08/03 02:53:50;;;;;;;20.95;3.10;;;;;;;25.56;55.11;99514.28;7313553;19;129481;-35
2022/08/03 02:56:17;;;;;;;;;;;;;;;25.57;57.66;99502.75;7315369;19;129303;-36
2022/08/03 02:58:44;;;;;;;15.10;3.30;;;;;;;25.58;55.62;99514.97;7313424;19;129090;-38
2022/08/03 03:01:10;;;;;;;14.10;3.42;;;;;;;25.56;54.95;99511.66;7314402;19;131043;-31
2022/08/03 03:03:37;;;;;;;27.67;4.00;;;;;;;25.56;54.52;99512.50;7313914;19;131322;-38
2022/08/03 03:06:03;;;;;;;31.33;3.67;;;;;;;25.50;55.29;99501.81;7314816;19;129706;-32
2022/08/03 03:08:30;;;;;;;44.28;5.35;;;;;;;25.59;55.38;99516.59;7313361;19;129685;-39
2022/08/03 03:10:58;;;;;;;27.55;4.20;;;;;;;25.57;55.92;99510.66;7312623;19;129146;-37
2022/08/03 03:13:25;;;;;;;33.05;4.93;;;;;;;25.57;56.02;99519.41;7312873;19;129078;-39
2022/08/03 03:15:51;;;;;;;21.58;3.53;;;;;;;25.57;55.31;99513.28;7315448;19;130988;-34
2022/08/03 03:18:17;;;;;;;59.00;6.77;;;;;;;25.47;54.97;99502.94;7314508;19;129668;-36
2022/08/03 03:20:44;;;;;;;23.87;3.47;;;;;;;25.56;56.32;99509.88;7315359;19;129224;-32
2022/08/03 03:23:10;;;;;;;30.25;4.05;;;;;;;25.54;55.97;99511.84;7314586;19;130059;-34
2022/08/03 03:25:37;;;;;;;30.77;4.70;;;;;;;25.57;56.38;99515.94;7314561;19;129642;-40
2022/08/03 03:28:03;;;;;;;36.22;4.85;;;;;;;25.56;55.88;99509.03;7314163;19;129337;-36
2022/08/03 03:30:29;;;;;;;34.97;5.28;;;;;;;25.58;55.70;99517.59;7310734;19;129008;-34
2022/08/03 03:32:57;;;;;;;19.75;3.35;;;;;;;25.54;55.45;99513.63;7312116;19;129325;-34
2022/08/03 03:35:22;;;;;;;16.95;3.50;;;;;;;25.55;55.83;99508.19;7313337;19;131544;-39
2022/08/03 03:37:48;;;;;;;22.33;3.90;;;;;;;25.55;55.26;99515.28;7313532;19;128756;-35
2022/08/03 03:40:13;;;;;;;11.53;3.53;;;;;;;25.55;55.89;99515.28;7310657;19;129874;-36
2022/08/03 03:42:39;;;;;;;38.33;4.90;;;;;;;25.47;55.40;99502.13;7312525;19;129440;-34
2022/08/03 03:45:06;;;;;;;29.40;4.80;;;;;;;25.57;55.83;99516.75;7311838;19;129761;-34
2022/08/03 03:47:32;;;;;;;;;;;;;;;25.62;57.63;99506.53;7308181;19;129743;-38
2022/08/03 03:49:58;;;;;;;21.25;3.58;;;;;;;25.60;55.42;99513.00;7311206;19;128994;-32
2022/08/03 03:52:23;;;;;;;32.77;4.77;;;;;;;25.58;55.94;99507.06;7310373;19;130236;-33
2022/08/03 03:54:49;;;;;;;31.17;4.77;;;;;;;25.58;55.19;99513.13;7311679;19;130267;-33
2022/08/03 03:57:14;;;;;;;33.93;4.80;;;;;;;25.57;55.94;99508.03;7312453;19;128960;-34
2022/08/03 03:59:41;;;;;;;26.17;4.17;;;;;;;25.58;55.31;99509.69;7310438;19;129098;-34
2022/08/03 04:02:07;;;;;;;;;;;;;;;25.66;57.50;99507.88;7314152;19;130431;-37
2022/08/03 04:12:51;;;;;;;33.23;5.17;;;;;;;25.57;55.91;99521.19;7313005;19;129680;-41
2022/08/03 04:15:21;;;;;;;30.27;4.95;;;;;;;25.52;57.37;99510.34;7311217;19;130455;-37
2022/08/03 04:17:49;;;;;;;40.40;6.07;;;;;;;25.51;56.15;99506.06;7311016;19;129109;-41
2022/08/03 04:20:16;;;;;;;25.48;4.70;;;;;;;25.56;56.04;99516.94;7309427;19;129411;-35
2022/08/03 04:22:42;;;;;;;16.73;4.20;;;;;;;25.54;56.41;99519.72;7309310;19;130345;-38
2022/08/03 04:25:10;;;;;;;39.40;5.40;;;;;;;25.56;56.30;99524.81;7312860;19;129183;-39
2022/08/03 04:27:39;;;;;;;24.83;4.88;;;;;;;25.55;56.16;99526.63;7311276;19;129090;-36
2022/08/03 04:30:05;;;;;;;26.30;4.78;;;;;;;25.44;56.33;99511.19;7309934;19;128835;-37
2022/08/03 04:32:31;;;;;;;;;;;;;;;25.65;57.55;99534.38;7311486;19;132274;-33
2022/08/03 04:34:56;;;;;;;43.83;6.22;;;;;;;25.61;55.74;99535.69;7308820;19;130000;-32
2022/08/03 04:37:32;;;;;;;29.03;4.63;;;;;;;25.61;56.48;99535.69;7311119;19;129256;-41
2022/08/03 04:40:01;;;;;;;28.55;5.25;;;;;;;25.58;57.16;99541.28;7309806;19;128968;-38
2022/08/03 04:42:27;;;;;;;13.25;4.10;;;;;;;25.58;55.87;99536.81;7312398;19;130102;-36
2022/08/03 04:44:55;;;;;;;34.00;5.40;;;;;;;25.56;56.03;99530.91;7310523;19;130874;-37
2022/08/03 04:47:21;;;;;;;88.28;9.50;;;;;;;25.57;55.76;99534.34;7301558;19;129470;-39
2022/08/03 04:49:47;;;;;;;27.13;5.33;;;;;;;25.57;55.62;99537.00;7304625;19;129044;-36
2022/08/03 04:52:12;;;;;;;30.50;5.23;;;;;;;25.58;55.79;99538.66;7310126;19;129032;-41
2022/08/03 04:54:42;;;;;;;25.53;4.57;;;;;;;25.57;55.81;99537.00;7306205;19;130950;-30
2022/08/03 04:57:09;;;;;;;68.43;8.13;;;;;;;25.58;55.76;99543.91;7300479;19;129939;-38
2022/08/03 04:59:34;;;;;;;67.97;7.57;;;;;;;25.55;56.28;99539.78;7307806;19;130562;-42
2022/08/03 05:02:00;;;;;;;32.57;5.50;;;;;;;25.56;55.72;99548.53;7308874;19;130092;-33
2022/08/03 05:04:25;;;;;;;37.27;5.90;;;;;;;25.59;56.08;99542.91;7313291;19;129251;-35
2022/08/03 05:06:51;;;;;;;42.10;6.40;;;;;;;25.51;55.53;99527.13;7310253;19;129633;-38
2022/08/03 05:09:16;;;;;;;23.17;4.47;;;;;;;25.60;55.97;99541.94;7310601;19;128997;-32
2022/08/03 05:11:41;;;;;;;22.47;4.47;;;;;;;25.58;55.18;99541.28;7310767;19;130008;-39
2022/08/03 05:14:07;;;;;;;32.77;5.13;;;;;;;25.58;55.54;99546.56;7309306;19;130329;-39
2022/08/03 05:16:32;;;;;;;23.60;4.63;;;;;;;25.55;55.57;99544.25;7311387;19;129053;-32
2022/08/03 05:18:57;;;;;;;29.10;5.00;;;;;;;25.55;56.64;99536.34;7309805;19;130669;-30
2022/08/03 05:21:23;;;;;;;40.50;5.60;;;;;;;25.58;55.99;99541.28;7304358;19;130074;-36
2022/08/03 05:23:48;;;;;;;18.60;4.63;;;;;;;25.58;56.57;99543.91;7312488;19;130024;-35
2022/08/03 05:26:14;;;;;;;44.03;6.33;;;;;;;25.57;56.26;99542.25;7308809;19;131207;-36
2022/08/03 05:28:39;;;;;;;31.27;5.20;;;;;;;25.59;56.12;99548.19;7307884;19;129204;-37
2022/08/03 05:31:05;;;;;;;15.40;4.23;;;;;;;25.57;55.42;99542.25;7310179;19;129532;-30
2022/08/03 05:33:30;;;;;;;22.17;4.93;;;;;;;25.49;56.42;99531.75;7310367;19;130339;-34
2022/08/03 05:35:56;;;;;;;23.23;4.80;;;;;;;25.59;56.22;99540.28;7316524;19;129262;-39
2022/08/03 05:38:21;;;;;;;31.57;5.50;;;;;;;25.59;56.02;99542.91;7317243;19;131432;-40
2022/08/03 05:40:47;;;;;;;32.80;5.43;;;;;;;25.56;56.28;99538.00;7316200;19;129185;-38
2022/08/03 05:43:12;;;;;;;26.10;4.67;;;;;;;25.58;55.30;99541.28;7317373;19;129130;-36
2022/08/03 05:45:38;;;;;;;44.80;6.07;;;;;;;25.59;55.93;99542.91;7311671;19;130878;-36
2022/08/03 05:48:06;;;;;;;40.37;6.27;;;;;;;25.58;56.75;99543.91;7316224;19;129001;-35
2022/08/03 05:50:31;;;;;;;42.25;5.93;;;;;;;25.56;56.00;99538.00;7312415;19;129496;-38
2022/08/03 05:52:57;;;;;;;26.53;4.43;;;;;;;25.51;55.75;99527.13;7314656;19;131298;-33
2022/08/03 05:55:22;;;;;;;30.60;4.77;;;;;;;25.57;55.81;99545.72;7315345;19;129501;-36
2022/08/03 05:57:48;;;;;;;27.53;4.77;;;;;;;25.57;55.66;99545.72;7316609;19;129489;-37
2022/08/03 06:00:14;;;;;;;59.40;7.17;;;;;;;25.58;55.78;99542.09;7306636;19;130171;-34
2022/08/03 06:02:40;;;;;;;33.20;5.13;;;;;;;25.58;56.47;99541.28;7316155;19;129608;-36
2022/08/03 06:05:06;;;;;;;91.83;9.80;;;;;;;25.57;55.44;99539.63;7312187;19;129133;-40
2022/08/03 06:07:32;;;;;;;42.70;6.10;;;;;;;25.60;55.68;99544.59;7314578;19;128869;-34
2022/08/03 06:09:57;;;;;;;34.87;4.77;;;;;;;25.59;55.45;99545.56;7310685;19;130059;-34
2022/08/03 06:12:22;;;;;;;40.30;6.07;;;;;;;25.52;55.83;99531.41;7309096;19;130602;-40
2022/08/03 06:14:48;;;;;;;18.13;3.93;;;;;;;25.60;56.18;99547.22;7312869;19;128694;-34
2022/08/03 06:17:13;;;;;;;22.80;4.23;;;;;;;25.61;56.03;99546.22;7311487;19;129407;-32
2022/08/03 06:19:39;;;;;;;29.40;5.13;;;;;;;25.60;56.26;99545.38;7313651;19;129345;-38
2022/08/03 06:22:04;;;;;;;10.73;3.23;;;;;;;25.53;55.97;99533.91;7309835;19;130723;-36
2022/08/03 06:24:30;;;;;;;60.37;6.80;;;;;;;25.59;56.30;99545.56;7313190;19;129369;-32
2022/08/03 06:26:56;;;;;;;26.20;4.77;;;;;;;25.62;56.26;99542.56;7315007;19;129005;-34
2022/08/03 06:29:21;;;;;;;28.83;4.57;;;;;;;25.62;56.06;99545.22;7313767;19;129895;-38
2022/08/03 06:31:47;;;;;;;10.93;3.47;;;;;;;25.62;56.25;99547.84;7315861;19;131051;-32
2022/08/03 06:34:12;;;;;;;20.43;4.37;;;;;;;25.60;56.24;99540.13;7314756;19;129210;-34
2022/08/03 06:36:38;;;;;;;34.07;5.27;;;;;;;25.62;55.27;99548.69;7314417;19;129411;-34
2022/08/03 06:39:04;;;;;;;22.77;3.77;;;;;;;25.61;56.14;99543.59;7314683;19;129824;-37
2022/08/03 06:41:29;;;;;;;21.07;4.40;;;;;;;25.60;55.61;99549.84;7315493;19;129666;-31
2022/08/03 06:43:55;;;;;;;24.97;4.20;;;;;;;25.61;55.80;99547.03;7316182;19;129251;-32
2022/08/03 06:46:21;;;;;;;13.37;3.43;;;;;;;25.60;55.64;99547.22;7312552;19;129041;-34
2022/08/03 06:48:46;;;;;;;20.50;4.07;;;;;;;25.62;56.27;99543.41;7312540;19;128963;-39
2022/08/03 06:51:12;;;;;;;22.53;3.97;;;;;;;25.60;56.36;99550.66;7314588;19;130185;-38
2022/08/03 06:53:38;;;;;;;15.70;3.57;;;;;;;25.60;55.57;99553.28;7314999;19;129318;-37
2022/08/03 06:56:04;;;;;;;26.00;3.97;;;;;;;25.60;56.72;99555.91;7316085;19;128985;-36
2022/08/03 06:58:30;;;;;;;33.03;4.47;;;;;;;25.59;56.10;99554.28;7313285;19;129463;-42
2022/08/03 07:00:55;;;;;;;37.47;5.20;;;;;;;25.61;55.07;99551.47;7315397;19;130463;-32
2022/08/03 07:03:21;;;;;;;25.70;3.97;;;;;;;25.53;56.54;99539.16;7314358;19;129689;-34
2022/08/03 07:05:47;;;;;;;23.47;3.63;;;;;;;25.62;56.23;99553.13;7316067;19;130306;-38
2022/08/03 07:08:13;;;;;;;45.97;5.77;;;;;;;25.63;55.30;99554.78;7313952;19;130304;-31
2022/08/03 07:10:38;;;;;;;34.10;4.67;;;;;;;25.55;56.16;99545.06;7315599;19;129655;-34
2022/08/03 07:13:04;;;;;;;29.77;4.50;;;;;;;25.62;55.35;99561.00;7315367;19;130493;-37
2022/08/03 07:15:30;;;;;;;9.37;3.03;;;;;;;25.62;55.64;99558.38;7315229;19;129335;-39
2022/08/03 07:17:55;;;;;;;17.97;3.30;;;;;;;25.62;55.86;99558.38;7314945;19;130306;-37
2022/08/03 07:20:21;;;;;;;20.63;3.53;;;;;;;25.62;56.06;99556.56;7312664;19;130381;-37
2022/08/03 07:22:47;;;;;;;35.73;4.83;;;;;;;25.62;55.70;99564.47;7309037;19;129082;-40
2022/08/03 07:25:13;;;;;;;14.40;3.17;;;;;;;25.63;56.05;99554.78;7313701;19;129247;-37
2022/08/03 07:27:45;;;;;;;55.07;6.03;;;;;;;25.62;56.69;99563.66;7311071;19;130934;-32
2022/08/03 07:30:12;;;;;;;24.40;3.78;;;;;;;25.61;55.76;99562.84;7310110;19;131255;-36
2022/08/03 07:32:38;;;;;;;30.95;4.07;;;;;;;25.62;54.73;99553.94;7309832;19;128911;-38
2022/08/03 07:35:04;;;;;;;25.23;3.80;;;;;;;25.62;55.83;99553.94;7312442;19;129192;-31
2022/08/03 07:37:30;;;;;;;23.35;3.70;;;;;;;25.63;56.38;99552.13;7308955;19;130857;-34
2022/08/03 07:39:55;;;;;;;7.57;2.57;;;;;;;25.62;55.92;99558.38;7310437;19;131068;-38
2022/08/03 07:42:22;;;;;;;23.30;3.90;;;;;;;25.63;55.98;99560.84;7312549;19;129086;-36
2022/08/03 07:44:48;;;;;;;36.10;4.55;;;;;;;25.62;56.14;99553.94;7311984;19;129369;-37
2022/08/03 07:47:27;;;;;;;27.97;3.87;;;;;;;25.57;56.67;99547.53;7312525;19;130013;-33
2022/08/03 07:49:53;;;;;;;36.22;4.70;;;;;;;25.63;56.57;99557.41;7309447;19;130086;-38
2022/08/03 07:55:05;;;;;;;35.08;4.47;;;;;;;25.61;56.49;99546.22;7311096;19;129094;-33
2022/08/03 07:57:30;;;;;;;25.70;3.70;;;;;;;25.62;55.98;99551.31;7312174;19;130374;-38
2022/08/03 07:59:56;;;;;;;35.73;4.57;;;;;;;25.63;56.69;99552.13;7309078;19;129609;-36
2022/08/03 08:02:21;;;;;;;23.10;3.50;;;;;;;25.55;55.83;99541.63;7312455;19;129330;-37
2022/08/03 08:04:46;;;;;;;21.00;3.37;;;;;;;25.63;56.32;99554.78;7312427;19;130864;-34
2022/08/03 08:07:12;;;;;;;29.73;3.87;;;;;;;25.64;56.79;99551.13;7310960;19;129301;-33
2022/08/03 08:09:37;;;;;;;73.87;7.07;;;;;;;25.62;56.37;99547.84;7307588;19;131006;-38
2022/08/03 08:12:03;;;;;;;22.13;3.27;;;;;;;25.63;55.91;99544.25;7309365;19;129680;-41
2022/08/03 08:14:28;;;;;;;23.90;3.50;;;;;;;25.55;55.91;99531.09;7310043;19;129148;-39
2022/08/03 08:16:54;;;;;;;20.73;3.57;;;;;;;25.55;56.04;99531.09;7311975;19;129099;-38
2022/08/03 08:19:19;;;;;;;28.17;3.57;;;;;;;25.63;56.40;99538.97;7310088;19;129524;-34
2022/08/03 08:21:45;;;;;;;35.60;4.20;;;;;;;25.62;55.38;99534.69;7310578;19;128750;-40
2022/08/03 08:24:10;;;;;;;35.00;4.33;;;;;;;25.64;55.92;99541.44;7312240;19;128970;-34
2022/08/03 08:26:36;;;;;;;19.53;3.10;;;;;;;25.63;56.40;99533.72;7312873;19;129458;-38
2022/08/03 08:29:02;;;;;;;23.60;3.17;;;;;;;25.62;56.29;99532.88;7302867;19;129794;-36
2022/08/03 08:31:28;;;;;;;40.15;4.53;;;;;;;25.64;55.61;99530.06;7305908;19;131185;-36
2022/08/03 08:33:54;;;;;;;38.63;4.67;;;;;;;25.63;56.78;99528.44;7308469;19;129408;-39
2022/08/03 08:36:19;;;;;;;30.20;4.03;;;;;;;25.58;55.86;99525.50;7312045;19;129279;-33
2022/08/03 08:38:44;;;;;;;23.63;3.40;;;;;;;25.65;56.28;99535.16;7309879;19;132038;-37
2022/08/03 08:41:11;;;;;;;29.43;3.87;;;;;;;25.67;56.73;99535.00;7306026;19;129884;-34
2022/08/03 08:43:37;;;;;;;47.25;4.97;;;;;;;25.63;56.26;99531.06;7306128;19;128895;-36
2022/08/03 08:46:06;;;;;;;25.73;3.37;;;;;;;25.55;56.57;99520.56;7312178;19;130256;-32
2022/08/03 08:48:32;;;;;;;20.42;2.88;;;;;;;25.63;56.28;99531.06;7309780;19;131199;-37
2022/08/03 08:50:59;;;;;;;29.37;3.77;;;;;;;25.62;55.46;99530.25;7305351;19;129172;-37
2022/08/03 08:53:27;;;;;;;27.85;3.67;;;;;;;25.56;56.59;99523.03;7310716;19;129005;-34
2022/08/03 08:56:01;;;;;;;47.75;4.82;;;;;;;25.62;57.03;99532.03;7304733;19;129516;-32
2022/08/03 08:58:36;;;;;;;24.50;3.10;;;;;;;25.62;57.49;99530.25;7310712;19;129229;-32
2022/08/03 09:01:02;;;;;;;23.10;2.95;;;;;;;25.62;56.19;99521.50;7307734;19;129810;-33
2022/08/03 09:03:27;;;;;;;30.97;3.67;;;;;;;25.61;55.54;99535.69;7311618;19;129216;-34
2022/08/03 09:05:53;;;;;;;19.10;2.70;;;;;;;25.60;55.58;99524.31;7311538;19;130622;-37
2022/08/03 09:08:19;;;;;;;37.25;4.18;;;;;;;25.62;55.98;99526.78;7307729;19;129941;-31
2022/08/03 09:10:44;;;;;;;21.80;2.97;;;;;;;25.62;56.96;99522.34;7316462;19;130216;-37
2022/08/03 09:13:10;;;;;;;12.27;2.37;;;;;;;25.63;55.47;99525.81;7317243;19;128853;-40
2022/08/03 09:15:37;;;;;;;30.00;3.47;;;;;;;25.61;55.98;99519.88;7318390;19;130633;-32
2022/08/03 09:18:04;;;;;;;38.95;4.53;;;;;;;25.62;56.51;99518.88;7316736;19;130296;-35
2022/08/03 09:20:32;;;;;;;27.52;3.20;;;;;;;25.62;56.08;99526.78;7315257;19;128763;-32
2022/08/03 09:23:08;;;;;;;33.78;4.18;;;;;;;25.63;58.17;99523.19;7317326;19;129265;-38
2022/08/03 09:25:37;;;;;;;17.10;3.20;;;;;;;25.57;56.46;99508.03;7317134;19;129642;-37
2022/08/03 09:28:13;;;;;;;38.75;4.47;;;;;;;25.65;58.51;99521.22;7316894;19;129084;-31
2022/08/03 09:30:44;;;;;;;23.97;3.37;;;;;;;25.61;57.26;99509.34;7317193;19;129564;-35
2022/08/03 09:33:12;;;;;;;22.95;2.90;;;;;;;25.61;56.11;99514.63;7317642;19;129621;-33
2022/08/03 09:35:45;;;;;;;27.45;3.72;;;;;;;25.63;57.99;99510.81;7317808;19;130282;-35
2022/08/03 09:38:16;;;;;;;28.35;3.78;;;;;;;25.62;56.79;99511.81;7316810;19;130246;-31
2022/08/03 09:40:43;;;;;;;15.32;2.83;;;;;;;25.63;56.64;99507.38;7318234;19;128794;-39
2022/08/03 09:43:09;;;;;;;22.80;3.20;;;;;;;25.64;56.29;99509.00;7316474;19;129115;-38
2022/08/03 09:45:38;;;;;;;22.50;3.07;;;;;;;25.64;57.05;99511.66;7318979;19;130722;-31
2022/08/03 09:48:23;;;;;;;44.90;4.85;;;;;;;25.65;58.97;99511.47;7317293;19;129176;-34
2022/08/03 09:50:50;;;;;;;26.77;3.30;;;;;;;25.57;56.60;99502.75;7316159;19;129162;-36
2022/08/03 09:53:17;;;;;;;23.15;3.45;;;;;;;25.59;56.47;99501.63;7316524;19;129564;-38
2022/08/03 09:55:59;;;;;;;32.40;3.67;;;;;;;25.65;58.89;99514.09;7316906;19;129486;-36
2022/08/03 09:58:27;;;;;;;22.73;2.83;;;;;;;25.61;56.30;99506.72;7316474;19;129792;-37
2022/08/03 10:01:02;;;;;;;26.52;3.55;;;;;;;25.64;58.62;99506.38;7313352;19;130700;-35
2022/08/03 10:03:30;;;;;;;21.05;2.63;;;;;;;25.62;57.04;99501.28;7317325;19;128978;-35
2022/08/03 10:05:55;;;;;;;33.38;3.83;;;;;;;25.63;57.18;99502.13;7315257;19;130365;-34
2022/08/03 10:08:21;;;;;;;29.87;3.70;;;;;;;25.64;56.75;99509.00;7314189;19;130615;-34
2022/08/03 10:10:49;;;;;;;101.57;8.93;;;;;;;25.58;56.77;99478.09;7312829;19;129717;-35
2022/08/03 10:13:16;;;;;;;36.20;3.90;;;;;;;25.63;57.65;99496.84;7317031;19;129125;-34
2022/08/03 10:15:42;;;;;;;23.10;2.97;;;;;;;25.63;57.24;99483.69;7313830;19;130464;-33
2022/08/03 10:18:07;;;;;;;52.57;5.63;;;;;;;25.63;56.79;99486.31;7315767;19;129292;-35
2022/08/03 10:20:57;;;;;;;36.13;4.17;;;;;;;25.59;58.76;99477.09;7309025;19;129155;-36
2022/08/03 10:23:24;;;;;;;43.47;4.53;;;;;;;25.64;57.23;99488.78;7315852;19;129534;-39
2022/08/03 10:25:53;;;;;;;21.15;2.67;;;;;;;25.57;58.38;99468.53;7315873;19;129678;-33
2022/08/03 10:28:20;;;;;;;49.30;5.13;;;;;;;25.63;57.26;99473.16;7313610;19;130633;-37
2022/08/03 10:30:51;;;;;;;;;;;;;;;25.70;58.65;99474.94;7316333;19;129004;-36
2022/08/03 10:33:20;;;;;;;13.20;2.45;;;;;;;25.59;57.88;99470.03;7314183;19;129699;-34
2022/08/03 10:35:51;;;;;;;12.65;2.25;;;;;;;25.64;57.95;99483.50;7316640;19;129519;-34
2022/08/03 10:38:24;;;;;;;43.83;4.47;;;;;;;25.64;58.74;99482.69;7313851;19;132155;-38
2022/08/03 10:40:53;;;;;;;41.00;4.43;;;;;;;25.61;57.73;99483.84;7312792;19;129145;-35
2022/08/03 10:43:31;;;;;;;10.18;2.38;;;;;;;25.59;58.23;99474.47;7314622;19;128983;-33
2022/08/03 10:45:57;;;;;;;30.25;3.60;;;;;;;25.63;57.13;99481.06;7314317;19;129813;-35
2022/08/03 10:48:23;;;;;;;;;;;;;;;25.65;58.72;99471.19;7314334;19;129210;-37
2022/08/03 10:50:49;;;;;;;30.55;3.60;;;;;;;25.66;57.72;99473.63;7313716;19;129441;-38
2022/08/03 10:53:15;;;;;;;32.07;3.60;;;;;;;25.65;57.06;99473.81;7314489;19;129563;-39
2022/08/03 10:58:35;;;;;;;33.88;4.07;;;;;;;25.64;58.94;99472.16;7310712;19;129197;-32
2022/08/03 11:01:03;;;;;;;34.28;4.20;;;;;;;25.63;57.11;99470.53;7313234;19;128912;-32
2022/08/03 11:03:28;;;;;;;32.22;3.75;;;;;;;25.64;57.93;99466.88;7311593;19;129459;-38
2022/08/03 11:06:14;;;;;;;21.50;3.20;;;;;;;25.66;58.78;99464.91;7313482;19;129135;-35
2022/08/03 11:08:39;;;;;;;35.15;4.13;;;;;;;25.65;56.83;99468.53;7312897;19;129220;-34
2022/08/03 11:11:16;;;;;;;29.20;3.33;;;;;;;25.66;58.91;99462.28;7313709;19;129016;-35
2022/08/03 11:14:04;;;;;;;;;;;;;;;25.73;59.01;99460.63;7316118;19;129049;-30
2022/08/03 11:16:33;;;;;;;28.17;3.60;;;;;;;25.57;57.43;99450.94;7314547;19;129709;-37
2022/08/03 11:19:09;;;;;;;45.05;4.55;;;;;;;25.61;56.76;99461.97;7311581;19;130083;-37
2022/08/03 11:21:50;;;;;;;64.28;5.85;;;;;;;25.65;59.01;99460.66;7308949;19;129261;-39
2022/08/03 11:24:38;;;;;;;39.90;3.92;;;;;;;25.67;58.74;99458.63;7313672;19;129495;-38
2022/08/03 11:27:15;;;;;;;;;;;;;;;25.73;58.43;99455.34;7312028;19;129192;-40
2022/08/03 11:29:58;;;;;;;31.27;3.83;;;;;;;25.66;58.12;99455.22;7311014;19;129283;-31
2022/08/03 11:32:36;;;;;;;35.38;4.07;;;;;;;25.65;58.58;99452.75;7310555;19;129308;-31
2022/08/03 11:35:11;;;;;;;;;;;;;;;25.65;58.88;99440.38;7311291;19;129598;-36
2022/08/03 11:37:55;;;;;;;41.03;4.55;;;;;;;25.59;58.49;99433.16;7311921;19;130177;-33